sensor_id;sensor_type;location;lat;lon;timestamp;P1;durP1;ratioP1;P2;durP2;ratioP2
49444;SDS011;35323;43.080;-81.378;2022-10-30T00:01:52;1.75;;;1.13;;
49444;SDS011;35323;43.080;-81.378;2022-10-30T00:04:19;1.20;;;1.00;;
49444;SDS011;35323;43.080;-81.378;2022-10-30T00:06:47;1.88;;;1.38;;
49444;SDS011;35323;43.080;-81.378;2022-10-30T00:09:14;1.52;;;1.42;;
49444;SDS011;35323;43.080;-81.378;2022-10-30T00:11:42;1.90;;;1.58;;
49444;SDS011;35323;43.080;-81.378;2022-10-30T00:14:09;2.08;;;1.48;;
49444;SDS011;35323;43.080;-81.378;2022-10-30T00:16:37;1.13;;;1.10;;
49444;SDS011;35323;43.080;-81.378;2022-10-30T00:19:05;1.63;;;0.90;;
49444;SDS011;35323;43.080;-81.378;2022-10-30T00:21:32;3.22;;;1.25;;
49444;SDS011;35323;43.080;-81.378;2022-10-30T00:24:00;1.38;;;1.27;;
49444;SDS011;35323;43.080;-81.378;2022-10-30T00:26:27;1.77;;;1.67;;
49444;SDS011;35323;43.080;-81.378;2022-10-30T00:28:54;1.85;;;1.33;;
49444;SDS011;35323;43.080;-81.378;2022-10-30T00:31:23;1.65;;;1.48;;
49444;SDS011;35323;43.080;-81.378;2022-10-30T00:33:51;2.03;;;1.38;;
49444;SDS011;35323;43.080;-81.378;2022-10-30T00:36:19;1.77;;;1.67;;
49444;SDS011;35323;43.080;-81.378;2022-10-30T00:38:47;1.55;;;1.42;;
49444;SDS011;35323;43.080;-81.378;2022-10-30T00:41:18;1.27;;;1.15;;
49444;SDS011;35323;43.080;-81.378;2022-10-30T00:43:46;3.17;;;1.77;;
49444;SDS011;35323;43.080;-81.378;2022-10-30T00:46:17;1.90;;;1.50;;
49444;SDS011;35323;43.080;-81.378;2022-10-30T00:48:47;1.83;;;1.30;;
49444;SDS011;35323;43.080;-81.378;2022-10-30T00:51:16;2.67;;;1.90;;
49444;SDS011;35323;43.080;-81.378;2022-10-30T00:53:44;5.63;;;2.00;;
49444;SDS011;35323;43.080;-81.378;2022-10-30T00:56:15;3.83;;;3.17;;
49444;SDS011;35323;43.080;-81.378;2022-10-30T00:58:46;1.48;;;1.38;;
49444;SDS011;35323;43.080;-81.378;2022-10-30T01:01:16;2.65;;;1.90;;
49444;SDS011;35323;43.080;-81.378;2022-10-30T01:03:45;2.42;;;1.95;;
49444;SDS011;35323;43.080;-81.378;2022-10-30T01:06:13;2.70;;;2.00;;
49444;SDS011;35323;43.080;-81.378;2022-10-30T01:08:42;4.13;;;3.38;;
49444;SDS011;35323;43.080;-81.378;2022-10-30T01:11:10;2.92;;;2.00;;
49444;SDS011;35323;43.080;-81.378;2022-10-30T01:13:38;2.92;;;2.25;;
49444;SDS011;35323;43.080;-81.378;2022-10-30T01:26:51;3.35;;;2.03;;
49444;SDS011;35323;43.080;-81.378;2022-10-30T01:29:33;7.25;;;3.00;;
49444;SDS011;35323;43.080;-81.378;2022-10-30T01:39:44;3.28;;;2.88;;
49444;SDS011;35323;43.080;-81.378;2022-10-30T01:44:58;1.77;;;1.65;;
49444;SDS011;35323;43.080;-81.378;2022-10-30T01:57:39;6.18;;;2.42;;
49444;SDS011;35323;43.080;-81.378;2022-10-30T02:00:11;3.67;;;2.03;;
49444;SDS011;35323;43.080;-81.378;2022-10-30T02:02:39;8.95;;;3.20;;
49444;SDS011;35323;43.080;-81.378;2022-10-30T02:05:07;4.03;;;2.58;;
49444;SDS011;35323;43.080;-81.378;2022-10-30T02:07:35;5.03;;;1.98;;
49444;SDS011;35323;43.080;-81.378;2022-10-30T02:10:03;5.82;;;2.88;;
49444;SDS011;35323;43.080;-81.378;2022-10-30T02:12:31;2.75;;;2.10;;
49444;SDS011;35323;43.080;-81.378;2022-10-30T02:14:59;5.53;;;2.97;;
49444;SDS011;35323;43.080;-81.378;2022-10-30T02:17:27;3.97;;;2.65;;
49444;SDS011;35323;43.080;-81.378;2022-10-30T02:19:54;3.53;;;2.53;;
49444;SDS011;35323;43.080;-81.378;2022-10-30T02:22:22;2.65;;;2.35;;
49444;SDS011;35323;43.080;-81.378;2022-10-30T02:24:50;2.75;;;2.55;;
49444;SDS011;35323;43.080;-81.378;2022-10-30T02:27:18;4.30;;;2.88;;
49444;SDS011;35323;43.080;-81.378;2022-10-30T02:29:45;4.53;;;3.03;;
49444;SDS011;35323;43.080;-81.378;2022-10-30T02:32:13;4.45;;;3.03;;
49444;SDS011;35323;43.080;-81.378;2022-10-30T02:34:40;5.80;;;3.53;;
49444;SDS011;35323;43.080;-81.378;2022-10-30T02:37:11;4.43;;;2.97;;
49444;SDS011;35323;43.080;-81.378;2022-10-30T02:39:40;4.82;;;3.72;;
49444;SDS011;35323;43.080;-81.378;2022-10-30T02:42:07;3.80;;;2.85;;
49444;SDS011;35323;43.080;-81.378;2022-10-30T02:44:34;4.47;;;3.38;;
49444;SDS011;35323;43.080;-81.378;2022-10-30T02:47:02;5.68;;;2.97;;
49444;SDS011;35323;43.080;-81.378;2022-10-30T02:49:29;6.85;;;3.67;;
49444;SDS011;35323;43.080;-81.378;2022-10-30T02:51:57;4.03;;;2.55;;
49444;SDS011;35323;43.080;-81.378;2022-10-30T02:54:24;5.03;;;3.25;;
49444;SDS011;35323;43.080;-81.378;2022-10-30T02:56:52;7.15;;;3.13;;
49444;SDS011;35323;43.080;-81.378;2022-10-30T02:59:19;2.83;;;1.88;;
49444;SDS011;35323;43.080;-81.378;2022-10-30T03:01:47;6.18;;;2.90;;
49444;SDS011;35323;43.080;-81.378;2022-10-30T03:04:14;2.45;;;2.03;;
49444;SDS011;35323;43.080;-81.378;2022-10-30T03:06:42;5.20;;;2.95;;
49444;SDS011;35323;43.080;-81.378;2022-10-30T03:09:09;7.22;;;3.15;;
49444;SDS011;35323;43.080;-81.378;2022-10-30T03:11:37;4.65;;;3.28;;
49444;SDS011;35323;43.080;-81.378;2022-10-30T03:14:04;4.50;;;3.05;;
49444;SDS011;35323;43.080;-81.378;2022-10-30T03:16:32;4.63;;;2.63;;
49444;SDS011;35323;43.080;-81.378;2022-10-30T03:18:59;6.65;;;3.13;;
49444;SDS011;35323;43.080;-81.378;2022-10-30T03:21:28;3.45;;;2.38;;
49444;SDS011;35323;43.080;-81.378;2022-10-30T03:23:56;3.90;;;2.92;;
49444;SDS011;35323;43.080;-81.378;2022-10-30T03:26:23;4.63;;;3.20;;
49444;SDS011;35323;43.080;-81.378;2022-10-30T03:28:51;3.53;;;3.22;;
49444;SDS011;35323;43.080;-81.378;2022-10-30T03:31:18;5.70;;;3.67;;
49444;SDS011;35323;43.080;-81.378;2022-10-30T03:33:46;3.70;;;2.95;;
49444;SDS011;35323;43.080;-81.378;2022-10-30T03:36:13;3.35;;;2.70;;
49444;SDS011;35323;43.080;-81.378;2022-10-30T03:38:41;6.38;;;2.95;;
49444;SDS011;35323;43.080;-81.378;2022-10-30T03:41:09;5.25;;;2.90;;
49444;SDS011;35323;43.080;-81.378;2022-10-30T03:43:36;5.72;;;3.25;;
49444;SDS011;35323;43.080;-81.378;2022-10-30T03:46:04;4.50;;;2.95;;
49444;SDS011;35323;43.080;-81.378;2022-10-30T03:48:31;4.10;;;3.70;;
49444;SDS011;35323;43.080;-81.378;2022-10-30T03:50:59;4.82;;;3.72;;
49444;SDS011;35323;43.080;-81.378;2022-10-30T03:53:27;3.28;;;2.88;;
49444;SDS011;35323;43.080;-81.378;2022-10-30T03:55:59;6.55;;;3.72;;
49444;SDS011;35323;43.080;-81.378;2022-10-30T03:58:27;6.32;;;3.22;;
49444;SDS011;35323;43.080;-81.378;2022-10-30T04:00:59;4.40;;;2.55;;
49444;SDS011;35323;43.080;-81.378;2022-10-30T04:03:27;3.17;;;2.33;;
49444;SDS011;35323;43.080;-81.378;2022-10-30T04:05:57;6.95;;;4.32;;
49444;SDS011;35323;43.080;-81.378;2022-10-30T04:08:25;5.55;;;3.13;;
49444;SDS011;35323;43.080;-81.378;2022-10-30T04:10:53;5.22;;;4.68;;
49444;SDS011;35323;43.080;-81.378;2022-10-30T04:13:20;5.30;;;3.90;;
49444;SDS011;35323;43.080;-81.378;2022-10-30T04:15:48;4.72;;;3.55;;
49444;SDS011;35323;43.080;-81.378;2022-10-30T04:18:22;3.97;;;3.55;;
49444;SDS011;35323;43.080;-81.378;2022-10-30T04:20:50;4.32;;;3.30;;
49444;SDS011;35323;43.080;-81.378;2022-10-30T04:23:18;2.83;;;2.53;;
49444;SDS011;35323;43.080;-81.378;2022-10-30T04:25:46;5.03;;;3.63;;
49444;SDS011;35323;43.080;-81.378;2022-10-30T04:28:13;6.38;;;4.10;;
49444;SDS011;35323;43.080;-81.378;2022-10-30T04:30:41;7.53;;;4.15;;
49444;SDS011;35323;43.080;-81.378;2022-10-30T04:33:09;4.50;;;3.15;;
49444;SDS011;35323;43.080;-81.378;2022-10-30T04:35:37;4.95;;;3.70;;
49444;SDS011;35323;43.080;-81.378;2022-10-30T04:38:06;5.25;;;2.72;;
49444;SDS011;35323;43.080;-81.378;2022-10-30T04:40:35;8.80;;;4.05;;
49444;SDS011;35323;43.080;-81.378;2022-10-30T04:43:03;6.10;;;4.20;;
49444;SDS011;35323;43.080;-81.378;2022-10-30T04:45:31;5.28;;;3.45;;
49444;SDS011;35323;43.080;-81.378;2022-10-30T04:48:19;3.78;;;3.42;;
49444;SDS011;35323;43.080;-81.378;2022-10-30T04:50:46;3.97;;;2.90;;
49444;SDS011;35323;43.080;-81.378;2022-10-30T04:53:15;6.93;;;4.57;;
49444;SDS011;35323;43.080;-81.378;2022-10-30T04:55:43;6.43;;;3.58;;
49444;SDS011;35323;43.080;-81.378;2022-10-30T04:58:11;4.40;;;3.42;;
49444;SDS011;35323;43.080;-81.378;2022-10-30T05:00:38;5.97;;;3.90;;
49444;SDS011;35323;43.080;-81.378;2022-10-30T05:03:06;4.57;;;3.47;;
49444;SDS011;35323;43.080;-81.378;2022-10-30T05:05:33;5.95;;;4.13;;
49444;SDS011;35323;43.080;-81.378;2022-10-30T05:08:01;8.82;;;5.70;;
49444;SDS011;35323;43.080;-81.378;2022-10-30T05:10:31;7.00;;;4.55;;
49444;SDS011;35323;43.080;-81.378;2022-10-30T05:12:59;8.90;;;6.60;;
49444;SDS011;35323;43.080;-81.378;2022-10-30T05:15:27;7.80;;;5.88;;
49444;SDS011;35323;43.080;-81.378;2022-10-30T05:17:55;9.45;;;5.32;;
49444;SDS011;35323;43.080;-81.378;2022-10-30T05:20:23;8.40;;;5.45;;
49444;SDS011;35323;43.080;-81.378;2022-10-30T05:22:54;6.18;;;3.13;;
49444;SDS011;35323;43.080;-81.378;2022-10-30T05:25:21;3.50;;;3.20;;
49444;SDS011;35323;43.080;-81.378;2022-10-30T05:27:49;4.03;;;2.90;;
49444;SDS011;35323;43.080;-81.378;2022-10-30T05:30:17;6.32;;;3.95;;
49444;SDS011;35323;43.080;-81.378;2022-10-30T05:32:44;4.50;;;3.33;;
49444;SDS011;35323;43.080;-81.378;2022-10-30T05:35:12;4.03;;;2.25;;
49444;SDS011;35323;43.080;-81.378;2022-10-30T05:37:39;3.97;;;3.10;;
49444;SDS011;35323;43.080;-81.378;2022-10-30T05:40:07;6.32;;;3.92;;
49444;SDS011;35323;43.080;-81.378;2022-10-30T05:42:34;3.63;;;2.90;;
49444;SDS011;35323;43.080;-81.378;2022-10-30T05:45:02;4.38;;;2.80;;
49444;SDS011;35323;43.080;-81.378;2022-10-30T05:47:29;4.47;;;4.03;;
49444;SDS011;35323;43.080;-81.378;2022-10-30T05:49:57;3.70;;;3.40;;
49444;SDS011;35323;43.080;-81.378;2022-10-30T05:52:25;4.63;;;2.17;;
49444;SDS011;35323;43.080;-81.378;2022-10-30T05:54:52;3.63;;;3.33;;
49444;SDS011;35323;43.080;-81.378;2022-10-30T05:57:19;6.38;;;3.42;;
49444;SDS011;35323;43.080;-81.378;2022-10-30T05:59:48;3.90;;;2.50;;
49444;SDS011;35323;43.080;-81.378;2022-10-30T06:02:16;6.45;;;5.13;;
49444;SDS011;35323;43.080;-81.378;2022-10-30T06:04:43;7.78;;;2.78;;
49444;SDS011;35323;43.080;-81.378;2022-10-30T06:07:11;4.80;;;3.30;;
49444;SDS011;35323;43.080;-81.378;2022-10-30T06:09:38;4.97;;;2.47;;
49444;SDS011;35323;43.080;-81.378;2022-10-30T06:12:06;7.50;;;3.35;;
49444;SDS011;35323;43.080;-81.378;2022-10-30T06:14:33;3.00;;;2.20;;
49444;SDS011;35323;43.080;-81.378;2022-10-30T06:17:01;5.80;;;2.10;;
49444;SDS011;35323;43.080;-81.378;2022-10-30T06:19:28;3.30;;;2.60;;
49444;SDS011;35323;43.080;-81.378;2022-10-30T06:21:56;3.58;;;2.33;;
49444;SDS011;35323;43.080;-81.378;2022-10-30T06:24:23;2.78;;;2.58;;
49444;SDS011;35323;43.080;-81.378;2022-10-30T06:26:51;2.85;;;2.17;;
49444;SDS011;35323;43.080;-81.378;2022-10-30T06:29:18;3.20;;;2.20;;
49444;SDS011;35323;43.080;-81.378;2022-10-30T06:31:46;4.15;;;2.50;;
49444;SDS011;35323;43.080;-81.378;2022-10-30T06:34:14;2.42;;;1.92;;
49444;SDS011;35323;43.080;-81.378;2022-10-30T06:36:41;3.03;;;1.75;;
49444;SDS011;35323;43.080;-81.378;2022-10-30T06:39:09;5.93;;;2.63;;
49444;SDS011;35323;43.080;-81.378;2022-10-30T06:41:36;2.55;;;2.22;;
49444;SDS011;35323;43.080;-81.378;2022-10-30T06:44:04;3.58;;;2.60;;
49444;SDS011;35323;43.080;-81.378;2022-10-30T06:46:31;4.47;;;3.00;;
49444;SDS011;35323;43.080;-81.378;2022-10-30T06:48:59;4.53;;;3.03;;
49444;SDS011;35323;43.080;-81.378;2022-10-30T06:51:26;2.67;;;2.20;;
49444;SDS011;35323;43.080;-81.378;2022-10-30T06:53:54;4.15;;;3.40;;
49444;SDS011;35323;43.080;-81.378;2022-10-30T06:56:22;3.60;;;3.15;;
49444;SDS011;35323;43.080;-81.378;2022-10-30T06:58:49;3.65;;;2.80;;
49444;SDS011;35323;43.080;-81.378;2022-10-30T07:01:17;2.92;;;2.17;;
49444;SDS011;35323;43.080;-81.378;2022-10-30T07:03:44;3.90;;;2.88;;
49444;SDS011;35323;43.080;-81.378;2022-10-30T07:06:12;3.25;;;2.63;;
49444;SDS011;35323;43.080;-81.378;2022-10-30T07:08:39;2.95;;;2.13;;
49444;SDS011;35323;43.080;-81.378;2022-10-30T07:11:06;6.35;;;2.63;;
49444;SDS011;35323;43.080;-81.378;2022-10-30T07:13:34;3.53;;;3.22;;
49444;SDS011;35323;43.080;-81.378;2022-10-30T07:16:01;3.20;;;2.65;;
49444;SDS011;35323;43.080;-81.378;2022-10-30T07:18:29;3.03;;;2.45;;
49444;SDS011;35323;43.080;-81.378;2022-10-30T07:20:56;2.85;;;2.42;;
49444;SDS011;35323;43.080;-81.378;2022-10-30T07:23:25;5.38;;;2.42;;
49444;SDS011;35323;43.080;-81.378;2022-10-30T07:25:53;3.40;;;2.65;;
49444;SDS011;35323;43.080;-81.378;2022-10-30T07:28:27;3.15;;;1.92;;
49444;SDS011;35323;43.080;-81.378;2022-10-30T07:30:57;16.83;;;2.15;;
49444;SDS011;35323;43.080;-81.378;2022-10-30T07:33:25;2.97;;;2.65;;
49444;SDS011;35323;43.080;-81.378;2022-10-30T07:35:53;2.50;;;1.65;;
49444;SDS011;35323;43.080;-81.378;2022-10-30T07:38:20;2.78;;;2.25;;
49444;SDS011;35323;43.080;-81.378;2022-10-30T07:40:51;2.95;;;2.28;;
49444;SDS011;35323;43.080;-81.378;2022-10-30T07:43:19;2.95;;;2.03;;
49444;SDS011;35323;43.080;-81.378;2022-10-30T07:45:47;2.42;;;2.20;;
49444;SDS011;35323;43.080;-81.378;2022-10-30T07:48:14;3.58;;;2.75;;
49444;SDS011;35323;43.080;-81.378;2022-10-30T07:50:42;3.08;;;1.60;;
49444;SDS011;35323;43.080;-81.378;2022-10-30T07:53:09;3.08;;;2.10;;
49444;SDS011;35323;43.080;-81.378;2022-10-30T07:55:36;3.67;;;3.22;;
49444;SDS011;35323;43.080;-81.378;2022-10-30T07:58:04;3.28;;;2.25;;
49444;SDS011;35323;43.080;-81.378;2022-10-30T08:00:31;3.30;;;2.05;;
49444;SDS011;35323;43.080;-81.378;2022-10-30T08:02:59;2.92;;;2.33;;
49444;SDS011;35323;43.080;-81.378;2022-10-30T08:05:27;3.55;;;1.70;;
49444;SDS011;35323;43.080;-81.378;2022-10-30T08:07:55;2.42;;;2.22;;
49444;SDS011;35323;43.080;-81.378;2022-10-30T08:10:23;5.78;;;1.90;;
49444;SDS011;35323;43.080;-81.378;2022-10-30T08:12:51;2.50;;;1.85;;
49444;SDS011;35323;43.080;-81.378;2022-10-30T08:15:19;3.92;;;2.50;;
49444;SDS011;35323;43.080;-81.378;2022-10-30T08:17:47;5.60;;;3.30;;
49444;SDS011;35323;43.080;-81.378;2022-10-30T08:20:16;8.48;;;2.53;;
49444;SDS011;35323;43.080;-81.378;2022-10-30T08:22:47;4.50;;;2.75;;
49444;SDS011;35323;43.080;-81.378;2022-10-30T08:25:16;2.97;;;2.00;;
49444;SDS011;35323;43.080;-81.378;2022-10-30T08:30:37;2.67;;;2.47;;
49444;SDS011;35323;43.080;-81.378;2022-10-30T08:33:06;2.67;;;1.75;;
49444;SDS011;35323;43.080;-81.378;2022-10-30T08:35:33;1.92;;;1.70;;
49444;SDS011;35323;43.080;-81.378;2022-10-30T08:38:01;3.92;;;2.00;;
49444;SDS011;35323;43.080;-81.378;2022-10-30T08:40:31;4.97;;;3.10;;
49444;SDS011;35323;43.080;-81.378;2022-10-30T08:42:58;2.47;;;1.75;;
49444;SDS011;35323;43.080;-81.378;2022-10-30T08:45:26;2.78;;;2.17;;
49444;SDS011;35323;43.080;-81.378;2022-10-30T08:48:00;3.83;;;2.00;;
49444;SDS011;35323;43.080;-81.378;2022-10-30T08:50:29;5.05;;;2.15;;
49444;SDS011;35323;43.080;-81.378;2022-10-30T08:53:05;3.05;;;1.67;;
49444;SDS011;35323;43.080;-81.378;2022-10-30T08:55:34;5.72;;;3.05;;
49444;SDS011;35323;43.080;-81.378;2022-10-30T08:58:02;2.03;;;1.80;;
49444;SDS011;35323;43.080;-81.378;2022-10-30T09:00:29;1.98;;;1.70;;
49444;SDS011;35323;43.080;-81.378;2022-10-30T09:02:57;2.90;;;1.73;;
49444;SDS011;35323;43.080;-81.378;2022-10-30T09:05:25;2.10;;;1.88;;
49444;SDS011;35323;43.080;-81.378;2022-10-30T09:07:56;3.42;;;1.90;;
49444;SDS011;35323;43.080;-81.378;2022-10-30T09:10:25;2.83;;;1.95;;
49444;SDS011;35323;43.080;-81.378;2022-10-30T09:12:56;3.17;;;1.65;;
49444;SDS011;35323;43.080;-81.378;2022-10-30T09:15:24;7.72;;;2.10;;
49444;SDS011;35323;43.080;-81.378;2022-10-30T09:17:59;3.33;;;3.03;;
49444;SDS011;35323;43.080;-81.378;2022-10-30T09:20:27;2.17;;;1.88;;
49444;SDS011;35323;43.080;-81.378;2022-10-30T09:22:55;4.25;;;2.42;;
49444;SDS011;35323;43.080;-81.378;2022-10-30T09:25:24;3.08;;;1.83;;
49444;SDS011;35323;43.080;-81.378;2022-10-30T09:27:51;3.08;;;1.77;;
49444;SDS011;35323;43.080;-81.378;2022-10-30T09:30:19;3.63;;;1.88;;
49444;SDS011;35323;43.080;-81.378;2022-10-30T09:32:55;2.78;;;2.28;;
49444;SDS011;35323;43.080;-81.378;2022-10-30T09:35:24;4.50;;;1.45;;
49444;SDS011;35323;43.080;-81.378;2022-10-30T09:37:52;1.95;;;1.60;;
49444;SDS011;35323;43.080;-81.378;2022-10-30T09:40:26;3.20;;;1.35;;
49444;SDS011;35323;43.080;-81.378;2022-10-30T09:42:59;2.63;;;2.30;;
49444;SDS011;35323;43.080;-81.378;2022-10-30T09:50:28;8.50;;;2.72;;
49444;SDS011;35323;43.080;-81.378;2022-10-30T09:55:41;6.15;;;3.10;;
49444;SDS011;35323;43.080;-81.378;2022-10-30T10:00:43;2.70;;;2.45;;
49444;SDS011;35323;43.080;-81.378;2022-10-30T10:03:26;5.75;;;2.53;;
49444;SDS011;35323;43.080;-81.378;2022-10-30T10:05:57;1.73;;;1.50;;
49444;SDS011;35323;43.080;-81.378;2022-10-30T10:08:34;3.72;;;2.50;;
49444;SDS011;35323;43.080;-81.378;2022-10-30T10:11:04;1.83;;;1.65;;
49444;SDS011;35323;43.080;-81.378;2022-10-30T10:13:36;2.72;;;1.80;;
49444;SDS011;35323;43.080;-81.378;2022-10-30T10:16:22;4.03;;;2.50;;
49444;SDS011;35323;43.080;-81.378;2022-10-30T10:18:54;4.20;;;2.63;;
49444;SDS011;35323;43.080;-81.378;2022-10-30T10:21:24;3.23;;;2.07;;
49444;SDS011;35323;43.080;-81.378;2022-10-30T10:23:53;11.77;;;4.63;;
49444;SDS011;35323;43.080;-81.378;2022-10-30T10:29:00;4.70;;;3.03;;
49444;SDS011;35323;43.080;-81.378;2022-10-30T10:36:53;2.22;;;2.03;;
49444;SDS011;35323;43.080;-81.378;2022-10-30T10:39:33;4.07;;;2.30;;
49444;SDS011;35323;43.080;-81.378;2022-10-30T10:42:18;2.40;;;1.63;;
49444;SDS011;35323;43.080;-81.378;2022-10-30T10:47:33;2.53;;;2.33;;
49444;SDS011;35323;43.080;-81.378;2022-10-30T10:50:17;2.13;;;1.98;;
49444;SDS011;35323;43.080;-81.378;2022-10-30T10:52:46;3.75;;;2.63;;
49444;SDS011;35323;43.080;-81.378;2022-10-30T10:55:16;1.92;;;1.65;;
49444;SDS011;35323;43.080;-81.378;2022-10-30T10:57:45;3.00;;;1.70;;
49444;SDS011;35323;43.080;-81.378;2022-10-30T11:02:42;3.63;;;1.90;;
49444;SDS011;35323;43.080;-81.378;2022-10-30T11:07:47;3.25;;;2.33;;
49444;SDS011;35323;43.080;-81.378;2022-10-30T11:10:18;3.58;;;2.42;;
49444;SDS011;35323;43.080;-81.378;2022-10-30T11:12:46;3.08;;;2.33;;
49444;SDS011;35323;43.080;-81.378;2022-10-30T11:18:27;3.05;;;1.95;;
49444;SDS011;35323;43.080;-81.378;2022-10-30T11:25:57;4.03;;;2.23;;
49444;SDS011;35323;43.080;-81.378;2022-10-30T11:28:30;5.93;;;2.28;;
49444;SDS011;35323;43.080;-81.378;2022-10-30T11:31:20;3.40;;;2.50;;
49444;SDS011;35323;43.080;-81.378;2022-10-30T11:33:48;2.70;;;2.50;;
49444;SDS011;35323;43.080;-81.378;2022-10-30T11:36:17;2.35;;;1.75;;
49444;SDS011;35323;43.080;-81.378;2022-10-30T11:38:44;3.15;;;2.45;;
49444;SDS011;35323;43.080;-81.378;2022-10-30T11:41:12;6.32;;;2.60;;
49444;SDS011;35323;43.080;-81.378;2022-10-30T11:43:40;3.35;;;2.33;;
49444;SDS011;35323;43.080;-81.378;2022-10-30T11:46:08;3.05;;;2.38;;
49444;SDS011;35323;43.080;-81.378;2022-10-30T11:48:37;5.25;;;2.95;;
49444;SDS011;35323;43.080;-81.378;2022-10-30T11:51:06;2.42;;;2.13;;
49444;SDS011;35323;43.080;-81.378;2022-10-30T11:53:38;2.92;;;2.40;;
49444;SDS011;35323;43.080;-81.378;2022-10-30T11:56:20;4.95;;;2.75;;
49444;SDS011;35323;43.080;-81.378;2022-10-30T11:58:49;5.82;;;3.75;;
49444;SDS011;35323;43.080;-81.378;2022-10-30T12:01:25;4.30;;;3.03;;
49444;SDS011;35323;43.080;-81.378;2022-10-30T12:03:53;2.85;;;2.53;;
49444;SDS011;35323;43.080;-81.378;2022-10-30T12:11:32;2.33;;;1.80;;
49444;SDS011;35323;43.080;-81.378;2022-10-30T12:14:00;2.92;;;2.58;;
49444;SDS011;35323;43.080;-81.378;2022-10-30T12:16:28;4.22;;;3.38;;
49444;SDS011;35323;43.080;-81.378;2022-10-30T12:19:05;4.07;;;2.22;;
49444;SDS011;35323;43.080;-81.378;2022-10-30T12:21:38;2.55;;;1.80;;
49444;SDS011;35323;43.080;-81.378;2022-10-30T12:24:11;5.40;;;2.78;;
49444;SDS011;35323;43.080;-81.378;2022-10-30T12:26:40;2.55;;;2.35;;
49444;SDS011;35323;43.080;-81.378;2022-10-30T12:29:13;2.65;;;2.28;;
49444;SDS011;35323;43.080;-81.378;2022-10-30T12:31:44;1.85;;;1.73;;
49444;SDS011;35323;43.080;-81.378;2022-10-30T12:37:02;2.92;;;2.25;;
49444;SDS011;35323;43.080;-81.378;2022-10-30T12:39:40;5.00;;;3.05;;
49444;SDS011;35323;43.080;-81.378;2022-10-30T12:42:16;2.47;;;2.00;;
49444;SDS011;35323;43.080;-81.378;2022-10-30T12:44:46;4.05;;;2.40;;
49444;SDS011;35323;43.080;-81.378;2022-10-30T12:47:26;4.18;;;2.45;;
49444;SDS011;35323;43.080;-81.378;2022-10-30T12:50:00;7.53;;;3.28;;
49444;SDS011;35323;43.080;-81.378;2022-10-30T12:52:32;3.58;;;2.58;;
49444;SDS011;35323;43.080;-81.378;2022-10-30T12:55:03;4.05;;;2.75;;
49444;SDS011;35323;43.080;-81.378;2022-10-30T12:58:17;5.80;;;2.45;;
49444;SDS011;35323;43.080;-81.378;2022-10-30T13:00:24;2.72;;;2.45;;
49444;SDS011;35323;43.080;-81.378;2022-10-30T13:02:58;7.60;;;2.88;;
49444;SDS011;35323;43.080;-81.378;2022-10-30T13:05:35;2.25;;;2.13;;
49444;SDS011;35323;43.080;-81.378;2022-10-30T13:08:09;3.80;;;3.45;;
49444;SDS011;35323;43.080;-81.378;2022-10-30T13:10:40;9.10;;;3.72;;
49444;SDS011;35323;43.080;-81.378;2022-10-30T13:13:18;6.43;;;3.15;;
49444;SDS011;35323;43.080;-81.378;2022-10-30T13:15:50;4.65;;;3.53;;
49444;SDS011;35323;43.080;-81.378;2022-10-30T13:18:20;7.97;;;3.47;;
49444;SDS011;35323;43.080;-81.378;2022-10-30T13:21:01;7.95;;;4.22;;
49444;SDS011;35323;43.080;-81.378;2022-10-30T13:23:41;2.95;;;2.72;;
49444;SDS011;35323;43.080;-81.378;2022-10-30T13:26:18;4.85;;;4.18;;
49444;SDS011;35323;43.080;-81.378;2022-10-30T13:28:54;5.25;;;2.03;;
49444;SDS011;35323;43.080;-81.378;2022-10-30T13:31:38;3.22;;;2.85;;
49444;SDS011;35323;43.080;-81.378;2022-10-30T13:36:40;4.28;;;3.05;;
49444;SDS011;35323;43.080;-81.378;2022-10-30T13:39:22;4.35;;;2.90;;
49444;SDS011;35323;43.080;-81.378;2022-10-30T13:47:25;4.05;;;2.75;;
49444;SDS011;35323;43.080;-81.378;2022-10-30T13:52:28;2.65;;;2.45;;
49444;SDS011;35323;43.080;-81.378;2022-10-30T13:55:02;3.72;;;2.67;;
49444;SDS011;35323;43.080;-81.378;2022-10-30T14:00:19;2.58;;;2.38;;
49444;SDS011;35323;43.080;-81.378;2022-10-30T14:08:26;3.63;;;2.22;;
49444;SDS011;35323;43.080;-81.378;2022-10-30T14:10:58;4.45;;;2.85;;
49444;SDS011;35323;43.080;-81.378;2022-10-30T14:13:27;5.47;;;2.55;;
49444;SDS011;35323;43.080;-81.378;2022-10-30T14:15:59;1.70;;;1.60;;
49444;SDS011;35323;43.080;-81.378;2022-10-30T14:18:28;3.10;;;2.22;;
49444;SDS011;35323;43.080;-81.378;2022-10-30T14:20:56;3.08;;;2.45;;
49444;SDS011;35323;43.080;-81.378;2022-10-30T14:28:55;3.58;;;1.73;;
49444;SDS011;35323;43.080;-81.378;2022-10-30T14:39:58;3.65;;;2.80;;
49444;SDS011;35323;43.080;-81.378;2022-10-30T14:55:53;10.20;;;2.35;;
49444;SDS011;35323;43.080;-81.378;2022-10-30T15:20:26;6.30;;;3.22;;
49444;SDS011;35323;43.080;-81.378;2022-10-30T15:22:55;3.13;;;2.03;;
49444;SDS011;35323;43.080;-81.378;2022-10-30T15:25:32;7.97;;;4.75;;
49444;SDS011;35323;43.080;-81.378;2022-10-30T15:30:25;6.82;;;3.78;;
49444;SDS011;35323;43.080;-81.378;2022-10-30T15:38:35;2.83;;;1.88;;
49444;SDS011;35323;43.080;-81.378;2022-10-30T15:41:03;2.75;;;1.77;;
49444;SDS011;35323;43.080;-81.378;2022-10-30T15:50:02;1.50;;;1.15;;
49444;SDS011;35323;43.080;-81.378;2022-10-30T15:52:31;2.03;;;1.20;;
49444;SDS011;35323;43.080;-81.378;2022-10-30T15:57:43;1.73;;;1.52;;
49444;SDS011;35323;43.080;-81.378;2022-10-30T16:00:40;1.75;;;1.35;;
49444;SDS011;35323;43.080;-81.378;2022-10-30T16:05:38;1.45;;;0.93;;
49444;SDS011;35323;43.080;-81.378;2022-10-30T16:08:10;1.50;;;1.30;;
49444;SDS011;35323;43.080;-81.378;2022-10-30T16:10:56;2.15;;;1.98;;
49444;SDS011;35323;43.080;-81.378;2022-10-30T16:16:09;1.23;;;1.13;;
49444;SDS011;35323;43.080;-81.378;2022-10-30T16:18:38;1.58;;;1.48;;
49444;SDS011;35323;43.080;-81.378;2022-10-30T16:21:09;3.42;;;1.30;;
49444;SDS011;35323;43.080;-81.378;2022-10-30T16:23:48;2.42;;;0.82;;
49444;SDS011;35323;43.080;-81.378;2022-10-30T16:26:26;1.40;;;1.10;;
49444;SDS011;35323;43.080;-81.378;2022-10-30T16:28:56;2.25;;;0.80;;
49444;SDS011;35323;43.080;-81.378;2022-10-30T16:36:43;3.20;;;1.38;;
49444;SDS011;35323;43.080;-81.378;2022-10-30T16:42:00;1.02;;;0.90;;
49444;SDS011;35323;43.080;-81.378;2022-10-30T16:44:33;1.90;;;1.20;;
49444;SDS011;35323;43.080;-81.378;2022-10-30T16:49:32;1.90;;;1.25;;
49444;SDS011;35323;43.080;-81.378;2022-10-30T16:52:02;1.13;;;1.02;;
49444;SDS011;35323;43.080;-81.378;2022-10-30T17:08:51;1.63;;;1.38;;
49444;SDS011;35323;43.080;-81.378;2022-10-30T17:11:19;1.00;;;1.00;;
49444;SDS011;35323;43.080;-81.378;2022-10-30T17:32:53;2.28;;;0.82;;
49444;SDS011;35323;43.080;-81.378;2022-10-30T17:40:38;0.98;;;0.93;;
49444;SDS011;35323;43.080;-81.378;2022-10-30T17:43:08;3.92;;;0.93;;
49444;SDS011;35323;43.080;-81.378;2022-10-30T17:48:19;1.00;;;1.00;;
49444;SDS011;35323;43.080;-81.378;2022-10-30T18:03:51;1.83;;;1.15;;
49444;SDS011;35323;43.080;-81.378;2022-10-30T18:06:22;1.40;;;1.05;;
49444;SDS011;35323;43.080;-81.378;2022-10-30T18:08:51;1.70;;;1.02;;
49444;SDS011;35323;43.080;-81.378;2022-10-30T18:14:01;1.83;;;1.10;;
49444;SDS011;35323;43.080;-81.378;2022-10-30T18:16:29;0.70;;;0.70;;
49444;SDS011;35323;43.080;-81.378;2022-10-30T18:18:58;3.03;;;1.90;;
49444;SDS011;35323;43.080;-81.378;2022-10-30T18:21:27;0.80;;;0.80;;
49444;SDS011;35323;43.080;-81.378;2022-10-30T20:59:09;0.80;;;0.70;;
49444;SDS011;35323;43.080;-81.378;2022-10-30T21:01:49;3.13;;;1.40;;
49444;SDS011;35323;43.080;-81.378;2022-10-30T21:04:17;2.30;;;0.93;;
49444;SDS011;35323;43.080;-81.378;2022-10-30T21:06:44;4.97;;;1.30;;